Terminal Aerodrome Forecast
Issued by NWS Hastings, NE

Home | Current Version | Previous Version | Text Only | Print | Product List | Glossary On
Versions: 1 2 3 4 5 6 7 8 9 10 11 12 13 14 15 16 17 18 19 20 21 22 23 24 25 26
000
FTUS43 KGID 271720
TAFGRI
TAF
KGRI 271720Z 2718/2818 18015G23KT P6SM SCT040 SCT120
     FM280000 15006KT P6SM SCT040 BKN120
     FM280600 16010KT 2SM BR SCT025 BKN040
     FM280800 21010KT 2SM BR SCT025 BKN060 WS010/22040KT
     FM281200 29011KT P6SM BKN060
     FM281600 32012KT P6SM BKN025=

USA.gov is the U.S. government's official web portal to all federal, state and local government web resources and services.